Time;durP1;ratioP1;P1;durP2;ratioP2;P2;SDS_P1;SDS_P2;PMS_P1;PMS_P2;Temp;Humidity;BMP_temperature;BMP_pressure;BME280_temperature;BME280_humidity;BME280_pressure;Samples;Min_cycle;Max_cycle;Signal;HPM_P1;HPM_P2
2022/05/22 00:02:29;;;;;;;3.83;1.08;;;16.50;85.60;;;;;;10538715;28;20338;-57
2022/05/22 00:07:29;;;;;;;2.15;1.40;;;16.50;85.60;;;;;;10538258;28;20044;-64
2022/05/22 00:12:30;;;;;;;3.78;1.77;;;16.40;85.50;;;;;;10538150;28;20086;-60
2022/05/22 00:17:31;;;;;;;2.25;1.20;;;16.40;85.50;;;;;;10537811;28;20040;-68
2022/05/22 00:22:32;;;;;;;3.55;1.40;;;16.40;85.50;;;;;;10538071;28;20705;-57
2022/05/22 00:27:33;;;;;;;3.75;1.17;;;16.30;85.50;;;;;;10536373;28;20454;-68
2022/05/22 00:32:36;;;;;;;3.08;1.20;;;16.30;85.50;;;;;;10537303;28;20057;-67
2022/05/22 00:37:37;;;;;;;2.42;1.30;;;16.30;85.50;;;;;;10537378;28;20036;-72
2022/05/22 00:42:38;;;;;;;3.95;1.35;;;16.30;85.50;;;;;;10536882;28;20518;-64
2022/05/22 00:47:39;;;;;;;2.63;1.20;;;16.30;85.50;;;;;;10536610;28;20040;-57
2022/05/22 00:52:47;;;;;;;3.30;1.40;;;16.30;85.50;;;;;;10536502;28;20028;-68
2022/05/22 00:57:57;;;;;;;6.10;1.50;;;16.20;85.40;;;;;;10536466;28;20094;-66
2022/05/22 01:08:21;;;;;;;2.38;1.20;;;16.20;85.40;;;;;;10536281;28;20492;-64
2022/05/22 01:13:29;;;;;;;3.05;1.10;;;16.20;85.40;;;;;;10535930;28;20034;-55
2022/05/22 01:18:30;;;;;;;3.70;1.58;;;16.10;85.30;;;;;;10535858;28;20044;-55
2022/05/22 01:23:31;;;;;;;4.78;1.45;;;16.10;85.90;;;;;;10536071;28;20058;-56
2022/05/22 01:28:32;;;;;;;3.60;1.33;;;16.10;85.30;;;;;;10535540;28;20040;-66
2022/05/22 01:33:35;;;;;;;4.80;1.50;;;16.10;85.30;;;;;;10535504;28;20032;-55
2022/05/22 01:38:37;;;;;;;2.20;1.45;;;16.10;85.30;;;;;;10542607;28;20044;-55
2022/05/22 01:43:38;;;;;;;2.50;1.30;;;16.00;85.30;;;;;;10544408;28;20119;-58
2022/05/22 01:48:38;;;;;;;3.45;1.30;;;16.00;85.30;;;;;;10543862;28;20449;-69
2022/05/22 01:53:39;;;;;;;1.60;1.05;;;16.00;85.30;;;;;;10543709;28;20067;-55
2022/05/22 01:58:40;;;;;;;1.42;1.30;;;16.00;85.30;;;;;;10543245;28;20044;-53
2022/05/22 02:03:40;;;;;;;3.92;1.30;;;15.90;85.20;;;;;;10543190;28;20169;-58
2022/05/22 02:08:42;;;;;;;2.85;1.23;;;15.90;85.20;;;;;;10542962;28;20032;-66
2022/05/22 02:13:44;;;;;;;3.65;1.50;;;15.90;85.20;;;;;;10543146;28;20032;-67
2022/05/22 02:18:45;;;;;;;2.00;1.20;;;15.90;85.20;;;;;;10542521;28;20040;-66
2022/05/22 02:23:45;;;;;;;1.75;1.20;;;15.90;85.20;;;;;;10542552;28;20032;-68
2022/05/22 02:28:46;;;;;;;2.75;1.20;;;15.80;85.10;;;;;;10542002;28;20148;-59
2022/05/22 02:33:47;;;;;;;2.83;1.27;;;15.80;85.10;;;;;;10542127;28;20062;-62
2022/05/22 02:38:47;;;;;;;1.83;1.08;;;15.80;85.10;;;;;;10541724;28;20127;-65
2022/05/22 02:43:48;;;;;;;4.72;1.40;;;15.70;85.10;;;;;;10541599;28;20040;-57
2022/05/22 02:48:49;;;;;;;1.35;0.85;;;15.70;85.00;;;;;;10540354;28;20040;-67
2022/05/22 02:53:50;;;;;;;3.38;1.30;;;15.70;85.00;;;;;;10541302;28;20507;-71
2022/05/22 02:58:50;;;;;;;3.15;1.20;;;15.70;85.00;;;;;;10541382;28;20048;-62
2022/05/22 03:03:51;;;;;;;2.42;1.05;;;15.70;85.00;;;;;;10540856;28;20047;-67
2022/05/22 03:08:52;;;;;;;1.23;1.00;;;15.70;85.00;;;;;;10540702;28;20035;-73
2022/05/22 03:13:52;;;;;;;1.33;0.98;;;15.60;85.00;;;;;;10539480;28;20032;-70
2022/05/22 03:18:53;;;;;;;1.67;0.80;;;15.60;85.00;;;;;;10540714;28;20064;-57
2022/05/22 03:23:54;;;;;;;1.00;0.93;;;15.60;84.90;;;;;;10540446;28;20046;-70
2022/05/22 03:28:55;;;;;;;1.15;0.80;;;15.50;84.90;;;;;;10539771;28;20048;-57
2022/05/22 03:33:55;;;;;;;1.10;1.00;;;15.50;84.80;;;;;;10539915;28;20035;-74
2022/05/22 03:38:56;;;;;;;1.27;0.98;;;15.50;84.80;;;;;;10539756;28;20047;-72
2022/05/22 03:43:57;;;;;;;1.45;0.90;;;15.50;84.80;;;;;;10539676;28;20051;-72
2022/05/22 03:48:58;;;;;;;1.17;0.98;;;15.50;84.80;;;;;;10539246;28;20040;-56
2022/05/22 03:53:59;;;;;;;2.33;0.80;;;15.50;84.80;;;;;;10539180;28;20047;-65
2022/05/22 03:59:00;;;;;;;1.20;0.90;;;15.40;84.70;;;;;;10538858;28;20040;-69
2022/05/22 04:04:01;;;;;;;1.42;0.80;;;15.40;84.70;;;;;;10538673;28;20385;-70
2022/05/22 04:09:02;;;;;;;1.23;0.80;;;15.40;84.70;;;;;;10539015;28;20036;-66
2022/05/22 04:14:03;;;;;;;0.90;0.80;;;15.40;84.70;;;;;;10538725;28;20036;-72
2022/05/22 04:19:04;;;;;;;1.58;1.02;;;15.40;84.60;;;;;;10538202;28;20472;-64
2022/05/22 04:29:24;;;;;;;1.42;0.90;;;15.40;84.60;;;;;;10538045;28;20058;-73
2022/05/22 04:34:25;;;;;;;0.77;0.70;;;15.30;84.50;;;;;;10537465;28;20047;-73
2022/05/22 04:39:25;;;;;;;1.75;0.90;;;15.30;84.50;;;;;;10537368;28;20043;-69
2022/05/22 04:44:26;;;;;;;1.73;1.23;;;15.30;84.50;;;;;;10537260;28;20052;-70
2022/05/22 04:49:27;;;;;;;1.42;0.90;;;15.40;84.50;;;;;;10536888;28;20030;-72
2022/05/22 04:54:27;;;;;;;1.10;1.00;;;15.30;84.50;;;;;;10536794;28;20036;-69
2022/05/22 04:59:28;;;;;;;2.85;1.20;;;15.30;84.50;;;;;;10537094;28;20039;-71
2022/05/22 05:04:29;;;;;;;1.20;1.10;;;15.30;84.50;;;;;;10536702;28;20044;-72
2022/05/22 05:09:31;;;;;;;1.60;1.08;;;15.30;84.50;;;;;;10535810;28;20119;-55
2022/05/22 05:14:32;;;;;;;2.20;1.13;;;15.30;84.50;;;;;;10536341;28;20060;-69
2022/05/22 05:19:33;;;;;;;2.03;1.17;;;15.30;84.40;;;;;;10536220;28;20036;-62
2022/05/22 05:24:34;;;;;;;3.30;1.33;;;15.30;84.40;;;;;;10535945;28;20460;-62
2022/05/22 05:29:34;;;;;;;2.42;1.38;;;15.30;84.40;;;;;;10535880;28;20077;-67
2022/05/22 05:34:35;;;;;;;3.05;1.23;;;15.30;85.00;;;;;;10535881;28;20562;-68
2022/05/22 05:39:36;;;;;;;2.30;1.20;;;15.30;84.40;;;;;;10535612;28;20033;-57
2022/05/22 05:44:36;;;;;;;2.25;1.13;;;15.30;84.40;;;;;;10535678;28;20481;-70
2022/05/22 05:49:38;;;;;;;1.60;1.30;;;15.30;84.40;;;;;;10535712;28;20465;-66
2022/05/22 05:54:39;;;;;;;1.70;1.35;;;15.30;84.40;;;;;;10535741;28;20048;-73
2022/05/22 05:59:41;;;;;;;3.05;1.27;;;15.30;84.40;;;;;;10535607;28;20044;-60
2022/05/22 06:04:42;;;;;;;2.33;1.20;;;15.30;84.40;;;;;;10535516;28;20101;-70
2022/05/22 06:09:43;;;;;;;2.17;1.40;;;15.30;84.50;;;;;;10535465;28;20443;-67
2022/05/22 06:14:43;;;;;;;2.15;1.40;;;15.30;84.50;;;;;;10535183;28;20571;-72
2022/05/22 06:19:59;;;;;;;2.20;1.20;;;15.40;84.60;;;;;;10534855;28;20516;-68
2022/05/22 06:25:03;;;;;;;1.23;1.10;;;15.40;84.60;;;;;;10542047;28;20032;-69
2022/05/22 06:30:05;;;;;;;2.67;1.58;;;15.40;84.70;;;;;;10542351;28;20048;-70
2022/05/22 06:35:07;;;;;;;2.65;1.38;;;15.40;84.70;;;;;;10542274;28;20060;-70
2022/05/22 06:40:08;;;;;;;2.97;1.50;;;15.40;84.80;;;;;;10541963;28;20029;-62
2022/05/22 06:45:13;;;;;;;3.70;1.52;;;15.40;84.90;;;;;;10541862;28;20127;-64
2022/05/22 06:50:19;;;;;;;3.25;2.05;;;15.40;84.90;;;;;;10541690;28;20032;-74
2022/05/22 06:55:20;;;;;;;2.35;1.52;;;15.50;85.10;;;;;;10541396;28;20040;-74
2022/05/22 07:00:21;;;;;;;2.88;1.30;;;15.50;85.10;;;;;;10541178;28;20032;-71
2022/05/22 07:05:22;;;;;;;2.03;1.42;;;15.50;85.00;;;;;;10541124;28;20036;-74
2022/05/22 07:15:41;;;;;;;3.33;1.67;;;15.60;85.10;;;;;;10540826;28;20139;-62
2022/05/22 07:20:42;;;;;;;1.70;1.30;;;15.60;85.00;;;;;;10540430;28;20119;-71
2022/05/22 07:25:43;;;;;;;2.42;1.30;;;15.60;85.00;;;;;;10540326;28;20491;-70
2022/05/22 07:30:43;;;;;;;4.18;1.60;;;15.60;85.00;;;;;;10539810;28;20132;-65
2022/05/22 07:35:58;;;;;;;3.60;1.40;;;15.70;85.00;;;;;;10539575;28;20131;-61
2022/05/22 07:40:59;;;;;;;3.38;1.25;;;15.70;85.00;;;;;;10539669;28;20054;-73
2022/05/22 07:46:00;;;;;;;3.15;1.20;;;15.80;84.90;;;;;;10539580;28;20078;-64
2022/05/22 07:51:03;;;;;;;4.00;1.33;;;15.80;84.80;;;;;;10539464;28;20476;-71
2022/05/22 07:56:04;;;;;;;2.53;1.48;;;15.80;84.80;;;;;;10539130;28;20466;-55
2022/05/22 08:01:05;;;;;;;4.85;1.70;;;15.90;84.80;;;;;;10538952;28;20400;-68
2022/05/22 08:06:06;;;;;;;1.92;1.50;;;15.90;84.70;;;;;;10538698;28;20047;-71
2022/05/22 08:11:07;;;;;;;2.35;1.30;;;15.90;84.70;;;;;;10538586;28;20110;-60
2022/05/22 08:16:08;;;;;;;1.38;0.90;;;16.00;84.70;;;;;;10538338;28;20518;-69
2022/05/22 08:21:09;;;;;;;6.05;1.75;;;16.00;84.60;;;;;;10538297;28;20036;-72
2022/05/22 08:26:10;;;;;;;4.97;1.40;;;16.10;84.70;;;;;;10538206;28;20492;-68
2022/05/22 08:31:11;;;;;;;3.63;1.38;;;16.10;84.60;;;;;;10537570;28;20135;-72
2022/05/22 08:36:11;;;;;;;3.95;1.20;;;16.10;84.60;;;;;;10537301;28;20048;-73
2022/05/22 08:41:19;;;;;;;2.03;1.10;;;16.20;84.50;;;;;;10537615;28;20409;-72
2022/05/22 08:46:31;;;;;;;2.97;1.07;;;16.20;84.50;;;;;;10536385;28;20453;-73
2022/05/22 08:51:46;;;;;;;1.83;1.10;;;16.30;84.60;;;;;;10537614;28;20040;-68
2022/05/22 09:02:23;;;;;;;1.73;0.93;;;16.30;84.30;;;;;;10537252;28;20482;-75
2022/05/22 09:07:41;;;;;;;2.05;1.15;;;16.40;84.30;;;;;;10536461;28;20043;-79
2022/05/22 09:13:03;;;;;;;5.05;1.20;;;16.50;84.20;;;;;;10536463;28;20502;-67
2022/05/22 09:18:11;;;;;;;3.00;1.00;;;16.50;84.00;;;;;;10536519;28;20146;-79
2022/05/22 09:23:18;;;;;;;4.55;1.20;;;16.60;84.00;;;;;;10536266;28;20056;-78
2022/05/22 09:28:55;;;;;;;3.55;1.40;;;16.60;83.90;;;;;;10535921;28;20044;-66
2022/05/22 09:34:25;;;;;;;3.65;1.10;;;16.70;83.90;;;;;;10535896;28;20481;-79
2022/05/22 09:39:25;;;;;;;2.35;0.90;;;16.80;83.70;;;;;;10532782;28;20144;-65
2022/05/22 09:45:13;;;;;;;1.98;1.10;;;16.80;83.60;;;;;;10535914;28;20032;-70
2022/05/22 09:50:22;;;;;;;2.50;0.85;;;16.80;83.50;;;;;;10508292;28;20060;-65
2022/05/22 09:55:33;;;;;;;1.40;0.98;;;16.90;83.40;;;;;;10533790;28;20040;-77
2022/05/22 10:00:54;;;;;;;3.75;0.93;;;17.00;83.30;;;;;;10542178;28;20068;-65
2022/05/22 10:06:17;;;;;;;2.95;1.00;;;17.10;83.20;;;;;;10541927;28;20113;-80
2022/05/22 10:11:39;;;;;;;3.20;1.10;;;17.10;83.00;;;;;;10541590;28;20453;-71
2022/05/22 10:17:04;;;;;;;4.78;1.00;;;17.20;82.80;;;;;;10541269;28;20048;-57
2022/05/22 10:22:43;;;;;;;3.78;1.10;;;17.20;82.60;;;;;;10541352;28;20028;-69
2022/05/22 10:28:09;;;;;;;3.25;1.00;;;17.30;82.50;;;;;;10541872;28;20035;-80
2022/05/22 10:33:13;;;;;;;2.42;0.80;;;17.40;82.30;;;;;;10538214;28;20036;-58
2022/05/22 10:38:30;;;;;;;2.63;0.95;;;17.40;82.20;;;;;;10542446;28;20043;-64
2022/05/22 10:43:36;;;;;;;2.20;1.02;;;17.40;82.10;;;;;;10541386;28;20055;-57
2022/05/22 10:48:53;;;;;;;1.90;1.08;;;17.50;82.70;;;;;;10541687;28;20059;-68
2022/05/22 10:53:59;;;;;;;2.60;0.85;;;17.60;82.00;;;;;;10540659;28;20036;-76
2022/05/22 10:59:02;;;;;;;1.80;0.90;;;17.60;81.90;;;;;;10539586;28;20036;-59
2022/05/22 11:04:14;;;;;;;3.85;0.93;;;17.70;81.80;;;;;;10539811;28;20028;-83
2022/05/22 11:09:22;;;;;;;2.05;0.98;;;17.70;81.60;;;;;;10538694;28;20471;-57
2022/05/22 11:14:22;;;;;;;2.30;1.00;;;17.80;81.60;;;;;;10539349;28;20507;-67
2022/05/22 11:19:25;;;;;;;4.63;0.93;;;17.80;81.50;;;;;;10539240;28;20036;-61
2022/05/22 11:25:11;;;;;;;2.47;1.00;;;17.90;81.30;;;;;;10538570;28;20111;-62
2022/05/22 11:31:01;;;;;;;3.20;1.02;;;18.00;81.00;;;;;;10536034;28;20066;-70
2022/05/22 11:36:20;;;;;;;2.00;0.93;;;18.10;80.70;;;;;;10513122;28;20066;-82
2022/05/22 11:41:37;;;;;;;3.63;1.00;;;18.20;80.50;;;;;;10538027;28;20032;-64
2022/05/22 11:47:09;;;;;;;2.00;1.30;;;18.30;80.50;;;;;;10537962;28;20451;-73
2022/05/22 11:58:12;;;;;;;3.22;1.52;;;18.40;80.40;;;;;;10537345;28;20518;-57
2022/05/22 12:03:36;;;;;;;1.70;0.77;;;18.50;80.20;;;;;;10537274;28;20040;-70
2022/05/22 12:09:15;;;;;;;2.47;0.95;;;18.50;80.20;;;;;;10537308;28;20434;-63
2022/05/22 12:14:32;;;;;;;3.38;1.00;;;18.50;80.30;;;;;;10536780;28;20110;-60
2022/05/22 12:19:50;;;;;;;2.08;0.95;;;18.60;80.40;;;;;;10536859;28;20047;-63
2022/05/22 12:25:04;;;;;;;2.05;0.93;;;18.70;80.30;;;;;;10536275;28;20161;-72
2022/05/22 12:30:10;;;;;;;2.05;0.93;;;18.80;80.20;;;;;;10536382;28;20150;-65
2022/05/22 12:35:12;;;;;;;3.60;1.60;;;18.90;80.10;;;;;;10536334;28;20101;-75
2022/05/22 12:40:16;;;;;;;1.75;1.10;;;19.00;79.50;;;;;;10536149;28;20144;-77
2022/05/22 12:45:17;;;;;;;5.75;1.65;;;19.10;78.50;;;;;;10517403;28;20036;-70
2022/05/22 12:50:31;;;;;;;2.90;1.67;;;19.40;77.20;;;;;;10535776;28;20040;-75
2022/05/22 12:55:35;;;;;;;4.07;1.63;;;19.60;75.30;;;;;;10535154;28;20052;-67
2022/05/22 13:00:38;;;;;;;5.40;1.27;;;19.60;75.30;;;;;;10517284;28;20395;-63
2022/05/22 13:05:42;;;;;;;3.40;1.30;;;19.50;75.90;;;;;;10534983;28;20548;-72
2022/05/22 13:10:54;;;;;;;3.83;1.38;;;19.40;75.80;;;;;;10534907;28;20036;-71
2022/05/22 13:16:04;;;;;;;4.82;1.40;;;19.30;75.60;;;;;;10534534;28;20439;-72
2022/05/22 13:21:05;;;;;;;5.97;1.65;;;19.30;76.00;;;;;;10534725;28;20032;-69
2022/05/22 13:26:28;;;;;;;3.83;1.58;;;19.60;75.30;;;;;;10534648;28;20094;-72
2022/05/22 13:31:38;;;;;;;10.27;1.48;;;19.90;74.50;;;;;;10533262;28;20079;-66
2022/05/22 13:36:57;;;;;;;6.07;1.60;;;19.90;73.90;;;;;;10534062;28;20119;-73
2022/05/22 13:42:22;;;;;;;6.47;1.65;;;20.10;73.30;;;;;;10534233;28;20017;-61
2022/05/22 13:47:57;;;;;;;6.03;1.33;;;20.50;72.20;;;;;;10534104;28;20072;-70
2022/05/22 13:53:14;;;;;;;2.28;1.13;;;20.90;70.90;;;;;;10534181;28;20032;-68
2022/05/22 13:58:28;;;;;;;2.60;1.27;;;20.80;71.00;;;;;;10533821;28;20073;-63
2022/05/22 14:03:35;;;;;;;3.63;1.20;;;21.10;71.50;;;;;;10533929;28;20373;-67
2022/05/22 14:08:36;;;;;;;5.20;1.60;;;21.20;71.50;;;;;;10533562;28;20083;-69
2022/05/22 14:13:48;;;;;;;2.25;1.30;;;21.40;70.90;;;;;;10533606;28;20086;-61
2022/05/22 14:19:02;;;;;;;4.85;1.30;;;21.50;70.80;;;;;;10533666;28;20055;-70
2022/05/22 14:29:25;;;;;;;2.78;1.40;;;21.90;70.40;;;;;;10533285;28;20123;-69
2022/05/22 14:34:28;;;;;;;5.38;1.30;;;21.90;70.30;;;;;;10532533;28;20143;-65
2022/05/22 14:39:28;;;;;;;5.13;1.52;;;21.90;70.30;;;;;;10533108;28;20501;-69
2022/05/22 14:44:34;;;;;;;7.13;1.75;;;21.90;70.30;;;;;;10535723;28;20032;-67
2022/05/22 14:49:46;;;;;;;3.30;1.33;;;22.10;70.20;;;;;;10539127;28;20067;-68
2022/05/22 14:54:53;;;;;;;3.03;1.40;;;22.20;69.10;;;;;;10540122;28;20035;-68
2022/05/22 15:00:05;;;;;;;4.07;1.48;;;22.30;69.40;;;;;;10540026;28;20039;-67
2022/05/22 15:05:19;;;;;;;2.45;1.25;;;22.50;68.70;;;;;;10539759;28;20119;-66
2022/05/22 15:10:29;;;;;;;5.10;1.63;;;22.50;68.50;;;;;;10539306;28;20039;-66
2022/05/22 15:15:33;;;;;;;5.00;1.83;;;22.60;68.70;;;;;;10539290;28;20538;-68
2022/05/22 15:20:36;;;;;;;2.42;1.25;;;22.40;68.20;;;;;;10539358;28;20460;-60
2022/05/22 15:25:44;;;;;;;4.10;1.48;;;22.20;68.00;;;;;;10538608;28;20398;-60
2022/05/22 15:30:59;;;;;;;4.45;1.23;;;22.20;68.40;;;;;;10538274;28;20113;-69
2022/05/22 15:36:24;;;;;;;3.28;1.42;;;22.30;68.80;;;;;;10537854;28;20053;-62
2022/05/22 15:41:29;;;;;;;4.82;1.50;;;22.50;68.10;;;;;;10538186;28;20028;-64
2022/05/22 15:46:30;;;;;;;5.28;1.42;;;22.60;68.10;;;;;;10537633;28;20036;-61
2022/05/22 15:51:31;;;;;;;3.85;1.50;;;22.70;68.10;;;;;;10536964;28;20122;-70
2022/05/22 15:56:34;;;;;;;4.45;1.48;;;22.60;67.90;;;;;;10536987;28;20237;-67
2022/05/22 16:01:38;;;;;;;4.90;1.10;;;22.30;68.20;;;;;;10537324;28;20068;-68
2022/05/22 16:06:39;;;;;;;3.83;1.40;;;21.90;68.50;;;;;;10536856;28;20411;-72
2022/05/22 16:11:41;;;;;;;2.58;1.30;;;21.50;68.80;;;;;;10537018;28;20047;-70
2022/05/22 16:16:47;;;;;;;5.28;1.45;;;21.30;69.80;;;;;;10536741;28;20044;-67
2022/05/22 16:21:52;;;;;;;3.47;1.30;;;21.00;69.20;;;;;;10536818;28;20115;-61
2022/05/22 16:26:52;;;;;;;10.57;1.33;;;20.80;69.80;;;;;;10536735;28;20036;-72
2022/05/22 16:31:53;;;;;;;4.68;1.23;;;20.80;70.00;;;;;;10531650;28;20558;-61
2022/05/22 16:36:54;;;;;;;4.03;1.42;;;20.80;70.10;;;;;;10535957;28;20103;-64
2022/05/22 16:41:55;;;;;;;1.90;1.10;;;20.80;70.10;;;;;;10536180;28;20043;-66
2022/05/22 16:46:59;;;;;;;2.70;1.08;;;20.80;70.20;;;;;;10535504;28;20392;-60
2022/05/22 16:57:29;;;;;;;3.40;1.17;;;21.00;70.40;;;;;;10496895;28;20059;-70
2022/05/22 17:02:31;;;;;;;2.38;1.02;;;21.10;70.50;;;;;;10535243;28;20023;-70
2022/05/22 17:07:32;;;;;;;2.70;0.82;;;21.10;70.80;;;;;;10534372;28;20531;-62
2022/05/22 17:12:33;;;;;;;3.83;1.13;;;21.10;71.10;;;;;;10533646;28;20028;-68
2022/05/22 17:17:34;;;;;;;2.60;1.35;;;21.10;71.40;;;;;;10534675;28;20098;-69
2022/05/22 17:22:35;;;;;;;2.13;1.08;;;21.10;71.60;;;;;;10534602;28;20035;-61
2022/05/22 17:27:44;;;;;;;1.75;0.98;;;21.10;71.90;;;;;;10534718;28;20043;-70
2022/05/22 17:32:44;;;;;;;;;;;21.10;72.10;;;;;;10532389;28;20404;-59
2022/05/22 17:37:46;;;;;;;1.55;0.85;;;21.10;72.30;;;;;;10534335;28;19920;-66
2022/05/22 17:42:47;;;;;;;3.30;0.90;;;21.00;72.60;;;;;;10534063;28;20111;-59
2022/05/22 17:47:48;;;;;;;1.77;0.85;;;21.00;72.80;;;;;;10534076;28;20123;-70
2022/05/22 17:52:51;;;;;;;2.30;0.77;;;21.00;73.10;;;;;;10533970;28;20036;-69
2022/05/22 17:57:52;;;;;;;2.60;0.90;;;20.90;73.20;;;;;;10534175;28;20044;-66
2022/05/22 18:02:52;;;;;;;1.88;1.00;;;20.90;73.50;;;;;;10534940;28;20036;-67
2022/05/22 18:07:53;;;;;;;0.93;0.75;;;20.90;73.70;;;;;;10535160;28;20577;-68
2022/05/22 18:18:36;;;;;;;1.77;0.80;;;20.80;74.10;;;;;;10368317;28;20054;-70
2022/05/22 18:23:47;;;;;;;2.50;0.80;;;20.80;74.30;;;;;;10505117;28;20033;-67
2022/05/22 18:28:52;;;;;;;1.58;1.48;;;20.70;74.40;;;;;;10540237;28;20148;-69
2022/05/22 18:33:53;;;;;;;3.08;0.90;;;20.70;74.60;;;;;;10542410;28;20510;-70
2022/05/22 18:38:53;;;;;;;1.63;0.90;;;20.70;74.80;;;;;;10542136;28;20048;-67
2022/05/22 18:43:55;;;;;;;1.55;0.85;;;20.60;75.00;;;;;;10541801;28;20032;-67
2022/05/22 18:48:56;;;;;;;2.45;1.00;;;20.60;75.10;;;;;;10541698;28;20058;-74
2022/05/22 18:53:57;;;;;;;1.98;0.90;;;20.50;75.20;;;;;;10541869;28;20485;-71
2022/05/22 18:58:58;;;;;;;1.45;0.75;;;20.50;75.40;;;;;;10541376;28;20088;-73
2022/05/22 19:03:59;;;;;;;1.50;0.88;;;20.50;75.60;;;;;;10541426;28;20066;-70
2022/05/22 19:09:00;;;;;;;0.90;0.73;;;20.40;75.70;;;;;;10541104;28;20365;-71
2022/05/22 19:14:04;;;;;;;2.05;0.90;;;20.40;75.90;;;;;;10540956;28;20039;-71
2022/05/22 19:19:06;;;;;;;1.23;0.80;;;20.40;76.00;;;;;;10540561;28;20143;-72
2022/05/22 19:24:08;;;;;;;1.67;0.70;;;20.30;76.10;;;;;;10540487;28;20498;-73
2022/05/22 19:29:12;;;;;;;2.25;0.82;;;20.30;76.30;;;;;;10539431;28;20079;-69
2022/05/22 19:34:12;;;;;;;2.20;0.85;;;20.20;76.30;;;;;;10539919;28;20044;-64
2022/05/22 19:39:13;;;;;;;1.42;0.80;;;20.20;76.50;;;;;;10540418;28;20102;-74
2022/05/22 19:44:24;;;;;;;1.67;0.73;;;20.10;76.50;;;;;;10539697;28;20043;-63
2022/05/22 19:49:24;;;;;;;1.73;0.80;;;20.10;76.70;;;;;;10539785;28;20119;-61
2022/05/22 19:59:44;;;;;;;3.03;1.08;;;20.00;76.90;;;;;;10539320;28;20502;-76
2022/05/22 20:04:45;;;;;;;2.45;0.98;;;20.00;77.00;;;;;;10538810;28;20074;-68
2022/05/22 20:09:46;;;;;;;1.40;0.80;;;19.80;77.00;;;;;;10538740;28;20455;-73
2022/05/22 20:14:46;;;;;;;1.58;0.80;;;19.90;77.80;;;;;;10538305;28;20092;-60
2022/05/22 20:19:47;;;;;;;1.98;1.15;;;19.90;77.30;;;;;;10538167;28;20131;-74
2022/05/22 20:24:48;;;;;;;1.20;1.00;;;19.80;77.30;;;;;;10538044;28;20024;-57
2022/05/22 20:29:49;;;;;;;1.08;0.98;;;19.80;77.30;;;;;;10537703;28;20054;-76
2022/05/22 20:34:49;;;;;;;2.55;1.00;;;19.70;77.30;;;;;;10537895;28;20119;-74
2022/05/22 20:39:50;;;;;;;1.10;1.00;;;19.70;77.50;;;;;;10537434;28;20032;-65
2022/05/22 20:44:53;;;;;;;1.23;0.95;;;19.70;77.50;;;;;;10537265;28;20028;-60
2022/05/22 20:50:01;;;;;;;2.15;1.17;;;19.60;77.50;;;;;;10537250;28;20043;-73
2022/05/22 20:55:02;;;;;;;1.35;1.08;;;19.60;77.50;;;;;;10537207;28;20093;-73
2022/05/22 21:00:04;;;;;;;2.35;1.30;;;19.60;77.70;;;;;;10537089;28;20036;-65
2022/05/22 21:05:05;;;;;;;2.65;1.30;;;19.50;77.60;;;;;;10536537;28;20032;-68
2022/05/22 21:10:06;;;;;;;2.80;1.20;;;19.50;77.70;;;;;;10536455;28;20392;-58
2022/05/22 21:15:08;;;;;;;2.15;1.40;;;19.50;77.80;;;;;;10536348;28;20039;-62
2022/05/22 21:20:20;;;;;;;2.97;1.30;;;19.40;77.80;;;;;;10536033;28;20518;-73
2022/05/22 21:30:41;;;;;;;2.45;1.33;;;19.40;77.90;;;;;;10536076;28;20069;-71
2022/05/22 21:35:42;;;;;;;1.65;1.35;;;19.30;77.90;;;;;;10536002;28;20094;-69
2022/05/22 21:40:43;;;;;;;1.50;1.05;;;19.30;78.00;;;;;;10535690;28;20047;-73
2022/05/22 21:45:44;;;;;;;1.60;1.17;;;19.30;78.00;;;;;;10535982;28;20040;-60
2022/05/22 21:50:45;;;;;;;1.35;1.20;;;19.20;78.00;;;;;;10535890;28;20401;-61
2022/05/22 21:55:53;;;;;;;12.98;1.58;;;19.20;78.10;;;;;;10542681;28;20048;-65
2022/05/22 22:01:15;;;;;;;;;;;19.20;78.10;;;;;;10544674;28;20036;-73
2022/05/22 22:06:17;;;;;;;2.15;1.65;;;19.10;78.20;;;;;;10543631;28;19904;-58
2022/05/22 22:11:18;;;;;;;1.75;1.30;;;19.10;78.10;;;;;;10543627;28;20404;-61
2022/05/22 22:16:18;;;;;;;1.00;0.80;;;19.10;78.20;;;;;;10543148;28;20054;-57
2022/05/22 22:21:23;;;;;;;3.05;1.50;;;19.00;78.20;;;;;;10542999;28;20111;-74
2022/05/22 22:26:24;;;;;;;2.75;1.40;;;19.00;78.30;;;;;;10543312;28;20116;-73
2022/05/22 22:31:25;;;;;;;2.47;1.48;;;19.00;78.30;;;;;;10542702;28;20453;-72
2022/05/22 22:36:25;;;;;;;2.22;0.95;;;19.00;78.40;;;;;;10542600;28;20044;-75
2022/05/22 22:41:26;;;;;;;1.15;1.00;;;18.90;78.40;;;;;;10542470;28;20122;-70
2022/05/22 22:46:27;;;;;;;1.75;1.20;;;18.90;78.40;;;;;;10542288;28;20035;-70
2022/05/22 22:51:27;;;;;;;2.67;0.90;;;18.90;78.40;;;;;;10542080;28;20154;-69
2022/05/22 23:01:52;;;;;;;2.03;1.00;;;18.90;78.50;;;;;;10541716;28;20055;-57
2022/05/22 23:06:55;;;;;;;2.42;0.93;;;18.80;78.50;;;;;;10540145;28;20054;-61
2022/05/22 23:11:57;;;;;;;3.97;1.70;;;18.80;78.50;;;;;;10541627;28;20040;-73
2022/05/22 23:16:58;;;;;;;2.70;1.23;;;18.80;78.50;;;;;;10540926;28;20080;-57
2022/05/22 23:21:59;;;;;;;2.75;1.00;;;18.70;78.50;;;;;;10540901;28;20024;-62
2022/05/22 23:27:00;;;;;;;2.88;1.25;;;18.70;78.50;;;;;;10540525;28;20040;-71
2022/05/22 23:32:01;;;;;;;2.90;1.25;;;18.70;78.50;;;;;;10540322;28;20044;-72
2022/05/22 23:37:03;;;;;;;1.75;1.10;;;18.70;78.50;;;;;;10540172;28;20048;-68
2022/05/22 23:42:06;;;;;;;1.70;1.17;;;18.70;78.60;;;;;;10539859;28;20032;-74
2022/05/22 23:47:07;;;;;;;2.20;1.10;;;18.60;78.60;;;;;;10540562;28;20038;-74
2022/05/22 23:52:11;;;;;;;2.80;1.27;;;18.60;78.60;;;;;;10539967;28;20119;-58
2022/05/22 23:57:12;;;;;;;2.20;1.30;;;18.60;78.70;;;;;;10539510;28;20047;-74
